createdAt,value
2023-04-18T00:01:42.174Z,16.05
2023-04-18T00:04:09.042Z,15.80
2023-04-18T00:06:38.751Z,14.32
2023-04-18T00:09:05.376Z,14.32
2023-04-18T00:11:32.331Z,14.70
2023-04-18T00:14:02.240Z,14.50
2023-04-18T00:16:29.063Z,14.02
2023-04-18T00:18:59.973Z,12.93
2023-04-18T00:21:26.599Z,12.68
2023-04-18T00:23:53.133Z,12.90
2023-04-18T00:26:19.810Z,12.48
2023-04-18T00:28:47.833Z,10.77
2023-04-18T00:31:14.610Z,11.23
2023-04-18T00:33:41.191Z,10.98
2023-04-18T00:36:08.026Z,10.77
2023-04-18T00:38:35.491Z,11.23
2023-04-18T00:41:02.298Z,12.20
2023-04-18T00:43:28.943Z,11.60
2023-04-18T00:45:57.176Z,11.95
2023-04-18T00:48:26.091Z,11.82
2023-04-18T00:50:53.978Z,12.18
2023-04-18T00:53:20.952Z,12.13
2023-04-18T00:55:47.566Z,11.18
2023-04-18T00:58:14.357Z,11.70
2023-04-18T01:00:40.913Z,10.60
2023-04-18T01:03:08.538Z,11.05
2023-04-18T01:05:36.505Z,10.40
2023-04-18T01:08:03.995Z,11.00
2023-04-18T01:10:30.582Z,12.00
2023-04-18T01:13:09.611Z,11.35
2023-04-18T01:15:37.010Z,11.30
2023-04-18T01:18:03.758Z,11.10
2023-04-18T01:20:31.281Z,10.13
2023-04-18T01:22:58.566Z,10.02
2023-04-18T01:25:25.091Z,10.18
2023-04-18T01:27:51.664Z,9.88
2023-04-18T01:30:18.179Z,10.43
2023-04-18T01:32:44.843Z,10.65
2023-04-18T01:35:11.707Z,10.57
2023-04-18T01:37:38.347Z,9.65
2023-04-18T01:40:06.984Z,10.07
2023-04-18T01:42:33.621Z,10.65
2023-04-18T01:45:00.114Z,9.80
2023-04-18T01:47:26.716Z,9.75
2023-04-18T01:49:53.201Z,9.95
2023-04-18T01:52:20.288Z,9.77
2023-04-18T01:54:46.751Z,10.55
2023-04-18T01:57:15.368Z,10.38
2023-04-18T01:59:42.101Z,10.55
2023-04-18T02:02:08.755Z,10.65
2023-04-18T02:04:35.747Z,10.85
2023-04-18T02:07:02.421Z,11.98
2023-04-18T02:09:28.870Z,11.68
2023-04-18T02:11:59.224Z,11.13
2023-04-18T02:14:27.183Z,11.93
2023-04-18T02:16:53.719Z,11.60
2023-04-18T02:19:21.032Z,12.70
2023-04-18T02:21:47.544Z,12.00
2023-04-18T02:24:14.811Z,12.73
2023-04-18T02:26:42.167Z,12.70
2023-04-18T02:29:08.797Z,15.82
2023-04-18T02:31:37.056Z,13.60
2023-04-18T02:34:03.957Z,14.30
2023-04-18T02:36:31.021Z,14.00
2023-04-18T02:38:57.500Z,14.15
2023-04-18T02:41:24.006Z,14.43
2023-04-18T02:43:50.747Z,14.57
2023-04-18T02:46:22.106Z,15.68
2023-04-18T02:48:49.172Z,15.95
2023-04-18T02:51:16.422Z,17.60
2023-04-18T02:53:42.966Z,18.20
2023-04-18T02:56:09.789Z,18.25
2023-04-18T02:58:59.201Z,19.58
2023-04-18T03:01:44.261Z,20.30
2023-04-18T03:04:14.001Z,20.23
2023-04-18T03:06:53.348Z,20.38
2023-04-18T03:09:20.143Z,21.58
2023-04-18T03:11:52.400Z,23.80
2023-04-18T03:14:24.152Z,23.50
2023-04-18T03:16:55.354Z,22.05
2023-04-18T03:19:26.309Z,24.98
2023-04-18T03:21:54.978Z,24.70
2023-04-18T03:24:22.154Z,25.65
2023-04-18T03:26:51.676Z,26.45
2023-04-18T03:29:21.421Z,27.80
2023-04-18T03:31:48.249Z,29.58
2023-04-18T03:34:15.029Z,30.48
2023-04-18T03:36:47.678Z,31.52
2023-04-18T03:39:14.926Z,32.28
2023-04-18T03:41:41.435Z,32.17
2023-04-18T03:44:09.018Z,33.85
2023-04-18T03:46:37.269Z,35.33
2023-04-18T03:49:04.808Z,38.63
2023-04-18T03:51:32.988Z,40.22
2023-04-18T03:53:59.428Z,37.83
2023-04-18T03:56:26.196Z,41.40
2023-04-18T03:58:55.194Z,40.50
2023-04-18T04:01:22.482Z,41.50
2023-04-18T04:03:51.470Z,41.85
2023-04-18T04:06:18.339Z,42.90
2023-04-18T04:08:44.901Z,44.08
2023-04-18T04:11:12.023Z,43.78
2023-04-18T04:13:39.019Z,41.45
2023-04-18T04:16:07.454Z,42.60
2023-04-18T04:18:34.027Z,42.10
2023-04-18T04:21:03.112Z,43.78
2023-04-18T04:23:50.773Z,41.95
2023-04-18T04:26:31.701Z,44.50
2023-04-18T04:29:13.831Z,40.75
2023-04-18T04:31:42.217Z,41.08
2023-04-18T04:34:08.985Z,42.13
2023-04-18T04:36:35.847Z,41.90
2023-04-18T04:39:18.407Z,42.70
2023-04-18T04:41:57.963Z,41.92
2023-04-18T04:44:31.395Z,41.05
2023-04-18T04:47:20.381Z,39.92
2023-04-18T04:49:53.732Z,44.30
2023-04-18T04:52:20.430Z,44.10
2023-04-18T04:54:47.060Z,40.88
2023-04-18T04:57:16.200Z,42.13
2023-04-18T04:59:43.063Z,40.10
2023-04-18T05:02:10.596Z,39.75
2023-04-18T05:04:37.363Z,39.95
2023-04-18T05:07:04.036Z,38.38
2023-04-18T05:09:30.788Z,39.40
2023-04-18T05:11:57.210Z,37.50
2023-04-18T05:14:23.680Z,38.13
2023-04-18T05:16:50.246Z,37.58
2023-04-18T05:19:16.745Z,38.53
2023-04-18T05:21:43.204Z,38.20
2023-04-18T05:24:09.874Z,36.42
2023-04-18T05:26:37.084Z,36.75
2023-04-18T05:29:03.643Z,35.42
2023-04-18T05:31:30.566Z,36.53
2023-04-18T05:33:57.133Z,35.20
2023-04-18T05:36:23.668Z,33.63
2023-04-18T05:38:51.925Z,32.63
2023-04-18T05:41:18.349Z,34.22
2023-04-18T05:43:51.142Z,32.85
2023-04-18T05:46:29.009Z,31.35
2023-04-18T05:48:55.456Z,32.83
2023-04-18T05:51:22.082Z,33.33
2023-04-18T05:53:48.537Z,33.10
2023-04-18T05:56:14.996Z,33.90
2023-04-18T05:58:41.396Z,34.55
2023-04-18T06:01:09.291Z,36.05
2023-04-18T06:03:36.116Z,34.60
2023-04-18T06:06:03.300Z,37.00
2023-04-18T06:08:30.060Z,35.40
2023-04-18T06:10:56.476Z,37.95
2023-04-18T06:13:23.133Z,38.10
2023-04-18T06:15:49.662Z,37.63
2023-04-18T06:18:16.420Z,38.50
2023-04-18T06:20:43.986Z,38.53
2023-04-18T06:23:10.655Z,39.20
2023-04-18T06:25:37.677Z,38.72
2023-04-18T06:28:04.262Z,38.70
2023-04-18T06:30:31.129Z,38.63
2023-04-18T06:32:57.754Z,39.63
2023-04-18T06:35:26.654Z,38.30
2023-04-18T06:37:53.676Z,40.35
2023-04-18T06:40:20.153Z,39.72
2023-04-18T06:42:46.906Z,39.58
2023-04-18T06:45:13.546Z,40.33
2023-04-18T06:47:40.616Z,38.25
2023-04-18T06:50:07.994Z,37.50
2023-04-18T06:52:40.521Z,37.85
2023-04-18T06:55:09.044Z,36.40
2023-04-18T06:57:35.502Z,37.30
2023-04-18T07:03:01.882Z,37.25
2023-04-18T07:05:34.568Z,33.50
2023-04-18T07:08:01.871Z,30.80
2023-04-18T07:10:29.905Z,28.50
2023-04-18T07:12:57.505Z,27.67
2023-04-18T07:15:26.419Z,26.80
2023-04-18T07:17:53.126Z,25.90
2023-04-18T07:20:20.178Z,25.00
2023-04-18T07:22:48.031Z,25.25
2023-04-18T07:25:14.617Z,25.55
2023-04-18T07:27:41.112Z,24.27
2023-04-18T07:30:10.857Z,25.83
2023-04-18T07:32:39.928Z,25.95
2023-04-18T07:35:10.445Z,26.42
2023-04-18T07:37:37.214Z,24.98
2023-04-18T07:40:04.665Z,24.63
2023-04-18T07:42:31.281Z,23.95
2023-04-18T07:45:00.873Z,23.60
2023-04-18T07:47:29.965Z,23.02
2023-04-18T07:49:57.870Z,22.23
2023-04-18T07:52:24.392Z,20.52
2023-04-18T07:54:51.246Z,20.55
2023-04-18T07:57:17.807Z,19.70
2023-04-18T07:59:44.652Z,20.92
2023-04-18T08:02:11.295Z,22.45
2023-04-18T08:04:44.249Z,21.83
2023-04-18T08:07:10.947Z,22.52
2023-04-18T08:09:37.724Z,24.67
2023-04-18T08:12:04.786Z,23.70
2023-04-18T08:14:32.008Z,25.20
2023-04-18T08:16:58.414Z,29.75
2023-04-18T08:19:26.796Z,30.88
2023-04-18T08:21:53.217Z,32.22
2023-04-18T08:24:19.936Z,30.30
2023-04-18T08:26:47.648Z,29.15
2023-04-18T08:29:14.810Z,30.50
2023-04-18T08:31:41.491Z,30.30
2023-04-18T08:34:09.302Z,30.02
2023-04-18T08:36:35.806Z,27.60
2023-04-18T08:39:02.631Z,28.02
2023-04-18T08:41:30.728Z,26.08
2023-04-18T08:43:58.201Z,25.30
2023-04-18T08:46:25.787Z,23.67
2023-04-18T08:48:58.456Z,23.95
2023-04-18T08:51:25.139Z,23.70
2023-04-18T08:53:53.199Z,22.02
2023-04-18T08:56:22.298Z,23.75
2023-04-18T08:58:49.702Z,27.15
2023-04-18T09:01:18.052Z,26.42
2023-04-18T09:03:44.601Z,26.30
2023-04-18T09:06:26.668Z,26.45
2023-04-18T09:08:59.048Z,26.55
2023-04-18T09:11:26.087Z,24.70
2023-04-18T09:13:53.263Z,25.27
2023-04-18T09:16:22.325Z,25.73
2023-04-18T09:19:24.427Z,24.42
2023-04-18T09:22:02.301Z,24.27
2023-04-18T09:24:30.301Z,24.35
2023-04-18T09:26:58.648Z,24.63
2023-04-18T09:29:41.198Z,25.98
2023-04-18T09:32:07.832Z,27.20
2023-04-18T09:34:44.693Z,26.00
2023-04-18T09:37:12.405Z,27.63
2023-04-18T09:39:39.809Z,27.70
2023-04-18T09:42:07.391Z,28.13
2023-04-18T09:44:33.949Z,28.08
2023-04-18T09:47:01.634Z,27.63
2023-04-18T09:49:29.369Z,28.80
2023-04-18T09:51:56.916Z,27.92
2023-04-18T09:54:24.187Z,27.92
2023-04-18T09:56:53.497Z,26.90
2023-04-18T09:59:28.853Z,26.70
2023-04-18T10:01:57.724Z,26.38
2023-04-18T10:04:24.530Z,25.58
2023-04-18T10:06:51.866Z,26.10
2023-04-18T10:09:18.922Z,27.25
2023-04-18T10:11:45.653Z,25.60
2023-04-18T10:14:13.496Z,27.23
2023-04-18T10:16:40.785Z,26.42
2023-04-18T10:19:44.270Z,27.27
2023-04-18T10:22:12.448Z,28.00
2023-04-18T10:24:56.080Z,27.65
2023-04-18T10:27:41.529Z,25.88
2023-04-18T10:30:09.214Z,26.35
2023-04-18T10:32:36.057Z,26.70
2023-04-18T10:35:03.734Z,27.42
2023-04-18T10:37:31.801Z,26.55
2023-04-18T10:40:00.378Z,27.65
2023-04-18T10:42:45.644Z,26.40
2023-04-18T10:45:25.343Z,25.95
2023-04-18T10:48:17.390Z,26.27
2023-04-18T10:51:12.112Z,26.00
2023-04-18T10:53:39.210Z,25.80
2023-04-18T10:56:06.783Z,26.77
2023-04-18T10:58:34.428Z,27.05
2023-04-18T11:01:06.185Z,25.73
2023-04-18T11:03:34.480Z,26.00
2023-04-18T11:06:03.997Z,24.80
2023-04-18T11:08:31.273Z,25.15
2023-04-18T11:11:00.545Z,24.77
2023-04-18T11:13:28.073Z,23.30
2023-04-18T11:15:56.274Z,24.73
2023-04-18T11:18:22.754Z,24.55
2023-04-18T11:20:51.099Z,24.45
2023-04-18T11:23:20.105Z,24.00
2023-04-18T11:25:49.928Z,25.83
2023-04-18T11:28:19.332Z,23.80
2023-04-18T11:30:46.046Z,23.65
2023-04-18T11:33:14.380Z,23.63
2023-04-18T11:35:44.806Z,25.88
2023-04-18T11:38:12.572Z,25.10
2023-04-18T11:40:47.905Z,26.00
2023-04-18T11:43:19.742Z,26.38
2023-04-18T11:45:52.743Z,25.08
2023-04-18T11:48:19.621Z,27.13
2023-04-18T11:50:46.073Z,27.30
2023-04-18T11:53:14.835Z,26.08
2023-04-18T11:55:41.336Z,27.48
2023-04-18T11:58:09.125Z,25.55
2023-04-18T12:00:38.067Z,25.67
2023-04-18T12:03:12.531Z,25.30
2023-04-18T12:05:43.189Z,26.20
2023-04-18T12:08:13.537Z,25.42
2023-04-18T12:10:51.410Z,24.52
2023-04-18T12:13:18.727Z,25.33
2023-04-18T12:15:46.153Z,24.60
2023-04-18T12:18:16.412Z,23.63
2023-04-18T12:20:50.120Z,24.10
2023-04-18T12:23:32.716Z,24.38
2023-04-18T12:26:07.498Z,22.42
2023-04-18T12:28:35.609Z,22.17
2023-04-18T12:31:02.270Z,21.45
2023-04-18T12:33:29.023Z,21.45
2023-04-18T12:35:56.879Z,21.77
2023-04-18T12:38:23.845Z,20.45
2023-04-18T12:40:52.063Z,22.27
2023-04-18T12:43:18.866Z,20.02
2023-04-18T12:45:46.863Z,22.20
2023-04-18T12:48:14.346Z,23.23
2023-04-18T12:50:41.843Z,23.02
2023-04-18T12:53:08.338Z,22.63
2023-04-18T12:55:36.284Z,24.50
2023-04-18T12:58:04.747Z,23.70
2023-04-18T13:00:32.339Z,24.13
2023-04-18T13:03:01.125Z,24.73
2023-04-18T13:05:30.729Z,25.33
2023-04-18T13:08:15.478Z,24.55
2023-04-18T13:10:44.069Z,25.55
2023-04-18T13:13:11.184Z,27.92
2023-04-18T13:15:38.448Z,28.00
2023-04-18T13:18:06.478Z,28.10
2023-04-18T13:20:35.422Z,26.10
2023-04-18T13:23:05.144Z,28.70
2023-04-18T13:25:32.756Z,31.85
2023-04-18T13:28:06.138Z,31.00
2023-04-18T13:30:35.889Z,31.75
2023-04-18T13:33:02.525Z,32.45
2023-04-18T13:35:30.638Z,32.75
2023-04-18T13:37:57.739Z,31.00
2023-04-18T13:40:25.402Z,33.25
2023-04-18T13:42:51.857Z,32.90
2023-04-18T13:45:20.469Z,34.33
2023-04-18T13:47:47.120Z,32.65
2023-04-18T13:50:13.917Z,33.38
2023-04-18T13:52:41.181Z,31.40
2023-04-18T13:55:09.857Z,32.05
2023-04-18T13:57:41.182Z,31.45
2023-04-18T14:00:09.985Z,31.20
2023-04-18T14:02:40.194Z,32.42
2023-04-18T14:05:07.252Z,31.85
2023-04-18T14:07:34.662Z,32.63
2023-04-18T14:10:01.129Z,29.95
2023-04-18T14:12:28.446Z,31.10
2023-04-18T14:14:54.978Z,30.10
2023-04-18T14:17:23.194Z,32.83
2023-04-18T14:19:51.381Z,29.83
2023-04-18T14:22:18.667Z,29.70
2023-04-18T14:24:46.477Z,30.27
2023-04-18T14:27:13.326Z,29.13
2023-04-18T14:29:43.380Z,28.27
2023-04-18T14:32:09.868Z,28.73
2023-04-18T14:34:38.258Z,29.73
2023-04-18T14:37:06.202Z,29.42
2023-04-18T14:39:32.619Z,28.45
2023-04-18T14:41:59.134Z,28.30
2023-04-18T14:44:25.831Z,25.85
2023-04-18T14:46:52.302Z,25.90
2023-04-18T14:49:18.866Z,25.48
2023-04-18T14:51:45.346Z,24.60
2023-04-18T14:54:11.813Z,24.10
2023-04-18T14:56:38.617Z,25.10
2023-04-18T14:59:05.109Z,23.88
2023-04-18T15:01:31.670Z,23.85
2023-04-18T15:04:05.427Z,25.67
2023-04-18T15:06:36.954Z,25.63
2023-04-18T15:09:03.530Z,25.13
2023-04-18T15:11:30.243Z,25.42
2023-04-18T15:13:56.932Z,24.85
2023-04-18T15:16:23.418Z,25.30
2023-04-18T15:18:50.383Z,24.70
2023-04-18T15:21:16.815Z,23.60
2023-04-18T15:23:45.276Z,23.92
2023-04-18T15:26:11.990Z,23.70
2023-04-18T15:28:40.873Z,24.52
2023-04-18T15:31:07.854Z,22.63
2023-04-18T15:33:38.597Z,21.98
2023-04-18T15:36:05.235Z,21.70
2023-04-18T15:38:33.100Z,22.17
2023-04-18T15:41:01.587Z,21.85
2023-04-18T15:43:27.990Z,21.02
2023-04-18T15:45:54.850Z,20.92
2023-04-18T15:48:21.500Z,21.48
2023-04-18T15:50:50.757Z,20.77
2023-04-18T15:53:17.195Z,21.00
2023-04-18T15:55:46.422Z,21.35
2023-04-18T15:58:14.920Z,21.27
2023-04-18T16:00:46.292Z,23.20
2023-04-18T16:03:15.223Z,23.25
2023-04-18T16:05:41.966Z,24.42
2023-04-18T16:08:11.496Z,22.88
2023-04-18T16:10:38.397Z,25.45
2023-04-18T16:13:06.651Z,25.80
2023-04-18T16:15:41.523Z,26.50
2023-04-18T16:18:08.374Z,26.02
2023-04-18T16:20:34.848Z,27.83
2023-04-18T16:23:02.031Z,26.13
2023-04-18T16:25:29.778Z,25.98
2023-04-18T16:27:56.958Z,26.95
2023-04-18T16:30:24.464Z,26.95
2023-04-18T16:32:51.193Z,26.55
2023-04-18T16:35:17.783Z,26.90
2023-04-18T16:37:44.614Z,25.73
2023-04-18T16:40:11.833Z,26.65
2023-04-18T16:42:38.326Z,26.95
2023-04-18T16:45:05.420Z,27.25
2023-04-18T16:47:32.051Z,26.48
2023-04-18T16:49:58.482Z,26.50
2023-04-18T16:52:25.110Z,26.95
2023-04-18T16:54:52.777Z,26.45
2023-04-18T16:57:19.350Z,27.10
2023-04-18T16:59:47.157Z,24.98
2023-04-18T17:02:14.595Z,25.95
2023-04-18T17:04:42.077Z,26.65
2023-04-18T17:07:09.567Z,25.20
2023-04-18T17:09:36.052Z,25.63
2023-04-18T17:12:02.533Z,25.83
2023-04-18T17:14:31.319Z,26.05
2023-04-18T17:16:57.704Z,27.42
2023-04-18T17:19:24.240Z,25.70
2023-04-18T17:21:51.318Z,26.67
2023-04-18T17:24:18.802Z,26.35
2023-04-18T17:26:45.274Z,25.25
2023-04-18T17:29:12.888Z,27.40
2023-04-18T17:31:39.720Z,27.67
2023-04-18T17:34:08.444Z,28.08
2023-04-18T17:36:34.981Z,28.40
2023-04-18T17:39:08.333Z,28.92
2023-04-18T17:41:37.718Z,29.70
2023-04-18T17:44:04.330Z,31.00
2023-04-18T17:46:31.758Z,31.95
2023-04-18T17:48:58.278Z,31.90
2023-04-18T17:51:27.200Z,31.35
2023-04-18T17:53:55.071Z,32.15
2023-04-18T17:56:22.372Z,34.58
2023-04-18T17:58:49.272Z,33.90
2023-04-18T18:01:20.393Z,35.95
2023-04-18T18:03:48.309Z,34.40
2023-04-18T18:06:15.361Z,35.00
2023-04-18T18:08:43.448Z,35.75
2023-04-18T18:11:10.689Z,36.63
2023-04-18T18:13:40.729Z,35.65
2023-04-18T18:16:08.618Z,38.08
2023-04-18T18:18:36.394Z,36.88
2023-04-18T18:21:03.433Z,36.30
2023-04-18T18:23:31.377Z,36.08
2023-04-18T18:26:00.224Z,36.28
2023-04-18T18:28:26.661Z,35.97
2023-04-18T18:30:53.900Z,35.65
2023-04-18T18:33:20.619Z,35.88
2023-04-18T18:35:47.309Z,34.22
2023-04-18T18:38:14.183Z,35.17
2023-04-18T18:40:41.591Z,33.92
2023-04-18T18:43:08.059Z,32.35
2023-04-18T18:45:35.715Z,34.45
2023-04-18T18:48:04.268Z,33.30
2023-04-18T18:50:31.594Z,32.90
2023-04-18T18:52:58.140Z,32.35
2023-04-18T18:55:25.561Z,31.90
2023-04-18T18:57:51.965Z,31.20
2023-04-18T19:00:19.384Z,31.33
2023-04-18T19:02:46.059Z,30.73
2023-04-18T19:05:12.962Z,30.83
2023-04-18T19:07:41.911Z,30.67
2023-04-18T19:10:09.733Z,30.33
2023-04-18T19:12:37.277Z,28.60
2023-04-18T19:15:04.526Z,30.45
2023-04-18T19:17:31.069Z,28.88
2023-04-18T19:20:01.084Z,31.73
2023-04-18T19:22:29.008Z,30.65
2023-04-18T19:24:55.838Z,32.35
2023-04-18T19:27:23.754Z,33.65
2023-04-18T19:29:50.681Z,32.63
2023-04-18T19:32:17.236Z,33.53
2023-04-18T19:34:44.451Z,33.20
2023-04-18T19:37:11.641Z,33.42
2023-04-18T19:39:39.497Z,32.40
2023-04-18T19:42:06.227Z,33.13
2023-04-18T19:44:34.428Z,33.30
2023-04-18T19:47:00.882Z,35.13
2023-04-18T19:49:27.613Z,34.25
2023-04-18T19:51:54.611Z,33.05
2023-04-18T19:54:22.093Z,34.22
2023-04-18T19:56:49.324Z,33.65
2023-04-18T19:59:16.247Z,34.58
2023-04-18T20:01:43.810Z,33.10
2023-04-18T20:04:10.564Z,34.83
2023-04-18T20:06:37.669Z,32.25
2023-04-18T20:09:05.539Z,33.80
2023-04-18T20:11:32.397Z,33.55
2023-04-18T20:13:58.936Z,31.20
2023-04-18T20:16:25.500Z,33.35
2023-04-18T20:18:54.668Z,32.33
2023-04-18T20:21:21.642Z,31.52
2023-04-18T20:23:48.887Z,31.30
2023-04-18T20:26:15.538Z,29.58
2023-04-18T20:28:42.148Z,31.48
2023-04-18T20:31:08.655Z,31.00
2023-04-18T20:33:36.755Z,31.95
2023-04-18T20:36:03.588Z,30.92
2023-04-18T20:38:30.439Z,30.13
2023-04-18T20:40:59.066Z,29.92
2023-04-18T20:43:25.994Z,29.02
2023-04-18T20:45:58.685Z,29.20
2023-04-18T20:48:25.482Z,28.25
2023-04-18T20:50:52.130Z,27.83
2023-04-18T20:53:26.237Z,27.42
2023-04-18T20:55:54.677Z,26.17
2023-04-18T20:58:21.246Z,26.98
2023-04-18T21:00:48.950Z,26.75
2023-04-18T21:03:16.286Z,25.67
2023-04-18T21:05:43.590Z,26.45
2023-04-18T21:08:11.363Z,26.58
2023-04-18T21:10:38.061Z,26.10
2023-04-18T21:13:05.200Z,25.92
2023-04-18T21:15:32.180Z,26.75
2023-04-18T21:17:58.759Z,25.85
2023-04-18T21:20:25.389Z,26.45
2023-04-18T21:22:52.029Z,26.17
2023-04-18T21:25:20.420Z,27.17
2023-04-18T21:27:47.067Z,26.73
2023-04-18T21:30:13.551Z,25.58
2023-04-18T21:32:42.577Z,24.85
2023-04-18T21:35:10.096Z,25.40
2023-04-18T21:37:36.690Z,26.38
2023-04-18T21:40:04.558Z,26.23
2023-04-18T21:42:31.106Z,27.02
2023-04-18T21:44:57.613Z,28.05
2023-04-18T21:47:25.874Z,29.02
2023-04-18T21:49:52.548Z,27.20
2023-04-18T21:52:19.123Z,27.63
2023-04-18T21:54:45.981Z,28.92
2023-04-18T21:57:12.740Z,28.73
2023-04-18T21:59:39.722Z,27.73
2023-04-18T22:02:06.312Z,28.52
2023-04-18T22:04:33.874Z,29.50
2023-04-18T22:07:00.554Z,28.85
2023-04-18T22:09:27.012Z,28.50
2023-04-18T22:11:56.894Z,27.58
2023-04-18T22:14:24.765Z,29.45
2023-04-18T22:16:51.362Z,28.38
2023-04-18T22:19:19.170Z,27.77
2023-04-18T22:21:46.029Z,27.70
2023-04-18T22:24:12.548Z,28.73
2023-04-18T22:26:39.823Z,26.63
2023-04-18T22:29:06.428Z,27.92
2023-04-18T22:31:32.950Z,28.00
2023-04-18T22:33:59.424Z,26.70
2023-04-18T22:36:27.738Z,27.75
2023-04-18T22:38:54.653Z,28.15
2023-04-18T22:41:21.259Z,27.50
2023-04-18T22:43:47.785Z,27.35
2023-04-18T22:46:14.452Z,27.85
2023-04-18T22:48:40.968Z,27.90
2023-04-18T22:51:07.498Z,29.58
2023-04-18T22:53:34.044Z,28.60
2023-04-18T22:56:00.665Z,29.10
2023-04-18T22:58:27.069Z,28.58
2023-04-18T23:00:53.536Z,27.77
2023-04-18T23:03:20.175Z,27.40
2023-04-18T23:05:46.679Z,27.20
2023-04-18T23:08:18.804Z,26.17
2023-04-18T23:10:45.484Z,26.50
2023-04-18T23:13:13.357Z,26.08
2023-04-18T23:15:39.872Z,25.50
2023-04-18T23:18:06.721Z,25.98
2023-04-18T23:20:33.494Z,25.90
2023-04-18T23:22:59.965Z,26.73
2023-04-18T23:25:26.491Z,26.70
2023-04-18T23:27:52.934Z,26.23
2023-04-18T23:30:19.496Z,27.00
2023-04-18T23:32:46.032Z,27.13
2023-04-18T23:35:12.582Z,25.52
2023-04-18T23:37:39.078Z,26.27
2023-04-18T23:40:06.953Z,25.00
2023-04-18T23:42:36.965Z,24.25
2023-04-18T23:45:04.046Z,23.05
2023-04-18T23:47:30.632Z,21.55
2023-04-18T23:49:57.537Z,20.15
2023-04-18T23:52:23.968Z,19.70
2023-04-18T23:54:50.617Z,18.30
2023-04-18T23:57:17.130Z,18.20
2023-04-18T23:59:43.546Z,17.08
